sensor_id;sensor_type;location;lat;lon;timestamp;pressure;altitude;pressure_sealevel;temperature;humidity
79799;BME280;69283;48.024;11.090;2023-10-19T00:02:05;93950.91;;;8.65;84.73
79799;BME280;69283;48.024;11.090;2023-10-19T00:04:30;93947.84;;;8.67;83.98
79799;BME280;69283;48.024;11.090;2023-10-19T00:06:58;93944.78;;;8.68;83.85
79799;BME280;69283;48.024;11.090;2023-10-19T00:09:23;93952.88;;;8.68;84.57
79799;BME280;69283;48.024;11.090;2023-10-19T00:11:50;93948.81;;;8.59;84.48
79799;BME280;69283;48.024;11.090;2023-10-19T00:14:17;93956.50;;;8.57;84.14
79799;BME280;69283;48.024;11.090;2023-10-19T00:16:43;93995.44;;;8.56;84.25
79799;BME280;69283;48.024;11.090;2023-10-19T00:19:35;94006.97;;;8.52;84.72
79799;BME280;69283;48.024;11.090;2023-10-19T00:22:23;93959.28;;;8.60;85.46
79799;BME280;69283;48.024;11.090;2023-10-19T00:24:49;93959.38;;;8.64;85.63
79799;BME280;69283;48.024;11.090;2023-10-19T00:27:15;93981.75;;;8.64;85.75
79799;BME280;69283;48.024;11.090;2023-10-19T00:29:42;93975.63;;;8.67;85.88
79799;BME280;69283;48.024;11.090;2023-10-19T00:32:14;93964.81;;;8.67;85.92
79799;BME280;69283;48.024;11.090;2023-10-19T00:34:40;93985.34;;;8.72;85.62
79799;BME280;69283;48.024;11.090;2023-10-19T00:37:06;93983.50;;;8.76;85.84
79799;BME280;69283;48.024;11.090;2023-10-19T00:39:36;93970.41;;;8.78;85.67
79799;BME280;69283;48.024;11.090;2023-10-19T00:42:15;93977.72;;;8.77;85.95
79799;BME280;69283;48.024;11.090;2023-10-19T00:44:45;93962.72;;;8.80;85.78
79799;BME280;69283;48.024;11.090;2023-10-19T00:47:15;93965.00;;;8.78;86.12
79799;BME280;69283;48.024;11.090;2023-10-19T00:49:45;93955.00;;;8.78;86.41
79799;BME280;69283;48.024;11.090;2023-10-19T00:52:11;93956.91;;;8.78;86.44
79799;BME280;69283;48.024;11.090;2023-10-19T00:54:42;93959.59;;;8.78;86.93
79799;BME280;69283;48.024;11.090;2023-10-19T00:57:15;93962.66;;;8.76;86.75
79799;BME280;69283;48.024;11.090;2023-10-19T00:59:45;93956.63;;;8.83;86.17
79799;BME280;69283;48.024;11.090;2023-10-19T01:02:15;93959.41;;;8.87;85.94
79799;BME280;69283;48.024;11.090;2023-10-19T01:04:51;93957.06;;;8.85;85.34
79799;BME280;69283;48.024;11.090;2023-10-19T01:07:33;93947.66;;;8.79;86.12
79799;BME280;69283;48.024;11.090;2023-10-19T01:10:03;93943.41;;;8.78;85.49
79799;BME280;69283;48.024;11.090;2023-10-19T01:12:44;93937.22;;;8.77;86.20
79799;BME280;69283;48.024;11.090;2023-10-19T01:15:10;93936.03;;;8.75;85.69
79799;BME280;69283;48.024;11.090;2023-10-19T01:18:00;93938.00;;;8.78;85.48
79799;BME280;69283;48.024;11.090;2023-10-19T01:20:28;93929.41;;;8.72;86.26
79799;BME280;69283;48.024;11.090;2023-10-19T01:23:05;93931.47;;;8.79;85.46
79799;BME280;69283;48.024;11.090;2023-10-19T01:28:12;93922.50;;;8.75;85.73
79799;BME280;69283;48.024;11.090;2023-10-19T01:30:41;93922.50;;;8.75;85.69
79799;BME280;69283;48.024;11.090;2023-10-19T01:33:07;93932.59;;;8.78;85.84
79799;BME280;69283;48.024;11.090;2023-10-19T01:35:41;93934.47;;;8.74;86.80
79799;BME280;69283;48.024;11.090;2023-10-19T01:38:25;93934.16;;;8.79;85.77
79799;BME280;69283;48.024;11.090;2023-10-19T01:40:50;93929.47;;;8.76;85.66
79799;BME280;69283;48.024;11.090;2023-10-19T01:43:16;93927.91;;;8.75;86.21
79799;BME280;69283;48.024;11.090;2023-10-19T01:45:56;93928.91;;;8.86;85.33
79799;BME280;69283;48.024;11.090;2023-10-19T01:48:21;93935.25;;;8.74;86.11
79799;BME280;69283;48.024;11.090;2023-10-19T01:50:53;93928.06;;;8.82;85.75
79799;BME280;69283;48.024;11.090;2023-10-19T01:53:18;93919.09;;;8.78;86.21
79799;BME280;69283;48.024;11.090;2023-10-19T01:55:46;93919.50;;;8.80;86.05
79799;BME280;69283;48.024;11.090;2023-10-19T01:58:13;93919.50;;;8.80;86.08
79799;BME280;69283;48.024;11.090;2023-10-19T02:00:40;93916.69;;;8.73;86.26
79799;BME280;69283;48.024;11.090;2023-10-19T02:03:07;93918.69;;;8.76;86.40
79799;BME280;69283;48.024;11.090;2023-10-19T02:05:34;93915.69;;;8.81;86.52
79799;BME280;69283;48.024;11.090;2023-10-19T02:08:06;93920.38;;;8.84;85.71
79799;BME280;69283;48.024;11.090;2023-10-19T02:10:35;93916.19;;;8.87;85.78
79799;BME280;69283;48.024;11.090;2023-10-19T02:13:02;93921.09;;;8.81;86.27
79799;BME280;69283;48.024;11.090;2023-10-19T02:15:33;93914.91;;;8.80;86.50
79799;BME280;69283;48.024;11.090;2023-10-19T02:18:00;93904.19;;;8.84;86.78
79799;BME280;69283;48.024;11.090;2023-10-19T02:20:29;93910.34;;;8.84;86.53
79799;BME280;69283;48.024;11.090;2023-10-19T02:22:55;93908.44;;;8.85;85.99
79799;BME280;69283;48.024;11.090;2023-10-19T02:25:25;93899.59;;;8.88;85.98
79799;BME280;69283;48.024;11.090;2023-10-19T02:27:53;93898.88;;;8.91;85.93
79799;BME280;69283;48.024;11.090;2023-10-19T02:30:18;93896.19;;;8.91;86.98
79799;BME280;69283;48.024;11.090;2023-10-19T02:32:44;93893.47;;;8.91;86.06
79799;BME280;69283;48.024;11.090;2023-10-19T02:35:09;93893.91;;;8.93;86.35
79799;BME280;69283;48.024;11.090;2023-10-19T02:37:34;93891.50;;;8.88;86.80
79799;BME280;69283;48.024;11.090;2023-10-19T02:40:00;93884.97;;;8.89;86.23
79799;BME280;69283;48.024;11.090;2023-10-19T02:42:25;93880.75;;;8.92;86.09
79799;BME280;69283;48.024;11.090;2023-10-19T02:44:51;93881.16;;;8.94;86.23
79799;BME280;69283;48.024;11.090;2023-10-19T02:47:16;93874.22;;;8.93;86.21
79799;BME280;69283;48.024;11.090;2023-10-19T02:49:42;93876.44;;;8.87;86.47
79799;BME280;69283;48.024;11.090;2023-10-19T02:52:09;93864.91;;;8.90;86.61
79799;BME280;69283;48.024;11.090;2023-10-19T02:54:37;93872.69;;;8.95;85.97
79799;BME280;69283;48.024;11.090;2023-10-19T02:57:03;93865.75;;;8.94;86.52
79799;BME280;69283;48.024;11.090;2023-10-19T02:59:32;93864.19;;;8.93;86.76
79799;BME280;69283;48.024;11.090;2023-10-19T03:01:59;93858.78;;;8.93;86.57
79799;BME280;69283;48.024;11.090;2023-10-19T03:04:37;93857.28;;;8.96;86.73
79799;BME280;69283;48.024;11.090;2023-10-19T03:07:03;93858.78;;;8.93;87.26
79799;BME280;69283;48.024;11.090;2023-10-19T03:09:29;93855.66;;;8.91;87.73
79799;BME280;69283;48.024;11.090;2023-10-19T03:11:56;93857.22;;;8.92;87.57
79799;BME280;69283;48.024;11.090;2023-10-19T03:14:27;93854.63;;;8.99;87.59
79799;BME280;69283;48.024;11.090;2023-10-19T03:16:53;93856.53;;;8.99;88.10
79799;BME280;69283;48.024;11.090;2023-10-19T03:19:22;93859.31;;;9.02;87.75
79799;BME280;69283;48.024;11.090;2023-10-19T03:21:50;93849.66;;;9.01;88.52
79799;BME280;69283;48.024;11.090;2023-10-19T03:24:18;93850.84;;;9.04;87.59
79799;BME280;69283;48.024;11.090;2023-10-19T03:27:07;93851.91;;;8.99;88.04
79799;BME280;69283;48.024;11.090;2023-10-19T03:29:41;93845.88;;;9.06;87.80
79799;BME280;69283;48.024;11.090;2023-10-19T03:32:07;93845.44;;;9.04;88.25
79799;BME280;69283;48.024;11.090;2023-10-19T03:34:34;93841.25;;;9.06;87.57
79799;BME280;69283;48.024;11.090;2023-10-19T03:37:01;93840.41;;;9.02;88.21
79799;BME280;69283;48.024;11.090;2023-10-19T03:39:33;93844.69;;;9.03;87.51
79799;BME280;69283;48.024;11.090;2023-10-19T03:41:59;93839.69;;;9.05;87.66
79799;BME280;69283;48.024;11.090;2023-10-19T03:44:24;93841.56;;;9.01;87.96
79799;BME280;69283;48.024;11.090;2023-10-19T03:46:50;93843.59;;;9.08;87.55
79799;BME280;69283;48.024;11.090;2023-10-19T03:49:29;93836.97;;;9.05;88.17
79799;BME280;69283;48.024;11.090;2023-10-19T03:52:07;93828.88;;;9.05;87.10
79799;BME280;69283;48.024;11.090;2023-10-19T03:54:36;93828.94;;;9.09;87.62
79799;BME280;69283;48.024;11.090;2023-10-19T03:57:05;93832.41;;;9.09;88.00
79799;BME280;69283;48.024;11.090;2023-10-19T03:59:40;93836.25;;;9.08;88.25
79799;BME280;69283;48.024;11.090;2023-10-19T04:02:09;93828.16;;;9.08;88.16
79799;BME280;69283;48.024;11.090;2023-10-19T04:04:37;93832.34;;;9.06;88.37
79799;BME280;69283;48.024;11.090;2023-10-19T04:07:04;93826.19;;;9.05;88.22
79799;BME280;69283;48.024;11.090;2023-10-19T04:09:36;93830.84;;;9.08;87.84
79799;BME280;69283;48.024;11.090;2023-10-19T04:12:14;93822.44;;;9.13;88.29
79799;BME280;69283;48.024;11.090;2023-10-19T04:14:42;93824.75;;;9.15;87.85
79799;BME280;69283;48.024;11.090;2023-10-19T04:17:07;93825.03;;;9.06;88.39
79799;BME280;69283;48.024;11.090;2023-10-19T04:19:32;93818.91;;;9.09;88.26
79799;BME280;69283;48.024;11.090;2023-10-19T04:21:58;93819.25;;;9.08;88.80
79799;BME280;69283;48.024;11.090;2023-10-19T04:24:23;93825.03;;;9.06;88.92
79799;BME280;69283;48.024;11.090;2023-10-19T04:26:48;93821.28;;;9.14;88.83
79799;BME280;69283;48.024;11.090;2023-10-19T04:29:14;93815.88;;;9.14;89.40
79799;BME280;69283;48.024;11.090;2023-10-19T04:31:43;93819.00;;;9.17;88.58
79799;BME280;69283;48.024;11.090;2023-10-19T04:34:21;93809.75;;;9.18;88.85
79799;BME280;69283;48.024;11.090;2023-10-19T04:36:48;93813.59;;;9.17;88.46
79799;BME280;69283;48.024;11.090;2023-10-19T04:39:13;93808.19;;;9.17;88.57
79799;BME280;69283;48.024;11.090;2023-10-19T04:41:39;93803.16;;;9.15;88.86
79799;BME280;69283;48.024;11.090;2023-10-19T04:44:05;93798.16;;;9.17;88.86
79799;BME280;69283;48.024;11.090;2023-10-19T04:46:33;93798.56;;;9.19;88.40
79799;BME280;69283;48.024;11.090;2023-10-19T04:48:58;93799.72;;;9.18;88.24
79799;BME280;69283;48.024;11.090;2023-10-19T04:51:24;93798.94;;;9.18;88.91
79799;BME280;69283;48.024;11.090;2023-10-19T04:53:50;93806.31;;;9.21;88.43
79799;BME280;69283;48.024;11.090;2023-10-19T04:56:15;93805.97;;;9.22;88.30
79799;BME280;69283;48.024;11.090;2023-10-19T04:58:40;93796.63;;;9.20;87.99
79799;BME280;69283;48.024;11.090;2023-10-19T05:01:06;93802.03;;;9.20;88.67
79799;BME280;69283;48.024;11.090;2023-10-19T05:03:31;93802.91;;;9.24;87.67
79799;BME280;69283;48.024;11.090;2023-10-19T05:05:58;93802.41;;;9.18;88.76
79799;BME280;69283;48.024;11.090;2023-10-19T05:08:24;93802.00;;;9.16;88.44
79799;BME280;69283;48.024;11.090;2023-10-19T05:10:53;93799.34;;;9.20;89.15
79799;BME280;69283;48.024;11.090;2023-10-19T05:13:20;93804.41;;;9.21;88.55
79799;BME280;69283;48.024;11.090;2023-10-19T05:15:46;93795.09;;;9.19;88.30
79799;BME280;69283;48.024;11.090;2023-10-19T05:18:11;93798.94;;;9.18;88.92
79799;BME280;69283;48.024;11.090;2023-10-19T05:20:37;93792.38;;;9.19;88.52
79799;BME280;69283;48.024;11.090;2023-10-19T05:23:09;93801.22;;;9.15;89.11
79799;BME280;69283;48.024;11.090;2023-10-19T05:25:35;93788.84;;;9.14;88.42
79799;BME280;69283;48.024;11.090;2023-10-19T05:28:04;93786.97;;;9.19;88.41
79799;BME280;69283;48.024;11.090;2023-10-19T05:30:30;93783.50;;;9.18;87.98
79799;BME280;69283;48.024;11.090;2023-10-19T05:32:57;93778.47;;;9.17;88.21
79799;BME280;69283;48.024;11.090;2023-10-19T05:35:23;93786.28;;;9.22;88.30
79799;BME280;69283;48.024;11.090;2023-10-19T05:37:51;93788.25;;;9.25;87.97
79799;BME280;69283;48.024;11.090;2023-10-19T05:40:17;93787.47;;;9.24;88.02
79799;BME280;69283;48.024;11.090;2023-10-19T05:42:44;93780.19;;;9.28;88.44
79799;BME280;69283;48.024;11.090;2023-10-19T05:45:09;93780.53;;;9.27;88.07
79799;BME280;69283;48.024;11.090;2023-10-19T05:47:38;93782.09;;;9.28;88.19
79799;BME280;69283;48.024;11.090;2023-10-19T05:50:03;93788.28;;;9.28;88.21
79799;BME280;69283;48.024;11.090;2023-10-19T05:52:29;93787.50;;;9.28;88.66
79799;BME280;69283;48.024;11.090;2023-10-19T05:54:54;93793.66;;;9.25;88.88
79799;BME280;69283;48.024;11.090;2023-10-19T05:57:20;93794.38;;;9.22;88.50
79799;BME280;69283;48.024;11.090;2023-10-19T05:59:47;93792.50;;;9.26;88.72
79799;BME280;69283;48.024;11.090;2023-10-19T06:02:12;93799.09;;;9.28;88.09
79799;BME280;69283;48.024;11.090;2023-10-19T06:04:38;93792.13;;;9.27;89.12
79799;BME280;69283;48.024;11.090;2023-10-19T06:07:03;93787.88;;;9.26;88.82
79799;BME280;69283;48.024;11.090;2023-10-19T06:09:28;93774.03;;;9.31;88.36
79799;BME280;69283;48.024;11.090;2023-10-19T06:11:56;93780.59;;;9.30;89.46
79799;BME280;69283;48.024;11.090;2023-10-19T06:14:22;93767.47;;;9.32;89.18
79799;BME280;69283;48.024;11.090;2023-10-19T06:16:47;93769.88;;;9.37;88.64
79799;BME280;69283;48.024;11.090;2023-10-19T06:19:12;93778.38;;;9.39;88.04
79799;BME280;69283;48.024;11.090;2023-10-19T06:21:37;93780.31;;;9.39;88.65
79799;BME280;69283;48.024;11.090;2023-10-19T06:24:03;93776.47;;;9.40;88.26
79799;BME280;69283;48.024;11.090;2023-10-19T06:26:28;93777.59;;;9.39;88.01
79799;BME280;69283;48.024;11.090;2023-10-19T06:28:54;93774.44;;;9.33;88.93
79799;BME280;69283;48.024;11.090;2023-10-19T06:31:25;93778.75;;;9.38;88.44
79799;BME280;69283;48.024;11.090;2023-10-19T06:33:51;93779.94;;;9.40;88.77
79799;BME280;69283;48.024;11.090;2023-10-19T06:36:17;93785.31;;;9.37;88.19
79799;BME280;69283;48.024;11.090;2023-10-19T06:38:44;93776.13;;;9.41;89.08
79799;BME280;69283;48.024;11.090;2023-10-19T06:41:11;93780.00;;;9.44;88.54
79799;BME280;69283;48.024;11.090;2023-10-19T06:43:37;93786.25;;;9.48;88.99
79799;BME280;69283;48.024;11.090;2023-10-19T06:46:02;93778.88;;;9.45;89.21
79799;BME280;69283;48.024;11.090;2023-10-19T06:48:28;93785.88;;;9.50;89.48
79799;BME280;69283;48.024;11.090;2023-10-19T06:50:56;93794.81;;;9.54;89.82
79799;BME280;69283;48.024;11.090;2023-10-19T06:53:21;93792.13;;;9.57;88.72
79799;BME280;69283;48.024;11.090;2023-10-19T06:55:47;93801.81;;;9.58;89.46
79799;BME280;69283;48.024;11.090;2023-10-19T06:58:13;93802.22;;;9.60;89.23
79799;BME280;69283;48.024;11.090;2023-10-19T07:00:40;93785.28;;;9.63;89.16
79799;BME280;69283;48.024;11.090;2023-10-19T07:03:08;93787.25;;;9.66;89.29
79799;BME280;69283;48.024;11.090;2023-10-19T07:05:33;93781.09;;;9.69;89.42
79799;BME280;69283;48.024;11.090;2023-10-19T07:07:59;93779.59;;;9.72;89.62
79799;BME280;69283;48.024;11.090;2023-10-19T07:10:26;93789.66;;;9.75;90.01
79799;BME280;69283;48.024;11.090;2023-10-19T07:12:53;93783.09;;;9.76;90.01
79799;BME280;69283;48.024;11.090;2023-10-19T07:15:19;93775.81;;;9.80;90.08
79799;BME280;69283;48.024;11.090;2023-10-19T07:17:49;93771.59;;;9.83;89.45
79799;BME280;69283;48.024;11.090;2023-10-19T07:20:17;93775.50;;;9.85;90.28
79799;BME280;69283;48.024;11.090;2023-10-19T07:25:22;93775.19;;;9.94;90.43
79799;BME280;69283;48.024;11.090;2023-10-19T07:27:49;93771.34;;;9.95;89.83
79799;BME280;69283;48.024;11.090;2023-10-19T07:30:15;93770.59;;;9.98;91.40
79799;BME280;69283;48.024;11.090;2023-10-19T07:32:45;93774.94;;;10.02;90.76
79799;BME280;69283;48.024;11.090;2023-10-19T07:35:11;93772.25;;;10.06;91.97
79799;BME280;69283;48.024;11.090;2023-10-19T07:37:36;93781.56;;;10.09;90.95
79799;BME280;69283;48.024;11.090;2023-10-19T07:40:01;93774.63;;;10.11;91.07
79799;BME280;69283;48.024;11.090;2023-10-19T07:42:27;93776.22;;;10.16;90.96
79799;BME280;69283;48.024;11.090;2023-10-19T07:44:52;93763.84;;;10.18;91.35
79799;BME280;69283;48.024;11.090;2023-10-19T07:47:18;93766.28;;;10.23;91.29
79799;BME280;69283;48.024;11.090;2023-10-19T07:49:43;93769.03;;;10.30;92.39
79799;BME280;69283;48.024;11.090;2023-10-19T07:52:09;93768.31;;;10.33;91.53
79799;BME280;69283;48.024;11.090;2023-10-19T07:54:39;93768.69;;;10.35;91.30
79799;BME280;69283;48.024;11.090;2023-10-19T07:57:04;93758.28;;;10.38;90.74
79799;BME280;69283;48.024;11.090;2023-10-19T07:59:32;93759.09;;;10.42;91.45
79799;BME280;69283;48.024;11.090;2023-10-19T08:01:58;93755.66;;;10.45;91.73
79799;BME280;69283;48.024;11.090;2023-10-19T08:04:28;93747.56;;;10.48;90.69
79799;BME280;69283;48.024;11.090;2023-10-19T08:06:53;93746.44;;;10.53;91.31
79799;BME280;69283;48.024;11.090;2023-10-19T08:09:19;93739.50;;;10.59;91.17
79799;BME280;69283;48.024;11.090;2023-10-19T08:11:56;93740.34;;;10.63;90.56
79799;BME280;69283;48.024;11.090;2023-10-19T08:14:25;93742.66;;;10.64;89.97
79799;BME280;69283;48.024;11.090;2023-10-19T08:16:51;93740.78;;;10.72;89.58
79799;BME280;69283;48.024;11.090;2023-10-19T08:19:17;93741.25;;;10.81;89.12
79799;BME280;69283;48.024;11.090;2023-10-19T08:21:43;93735.09;;;10.84;89.89
79799;BME280;69283;48.024;11.090;2023-10-19T08:24:08;93742.44;;;10.84;89.41
79799;BME280;69283;48.024;11.090;2023-10-19T08:26:39;93740.91;;;10.86;89.86
79799;BME280;69283;48.024;11.090;2023-10-19T08:29:06;93737.81;;;10.88;90.36
79799;BME280;69283;48.024;11.090;2023-10-19T08:31:41;93737.44;;;10.89;90.59
79799;BME280;69283;48.024;11.090;2023-10-19T08:34:07;93734.34;;;10.91;90.62
79799;BME280;69283;48.024;11.090;2023-10-19T08:36:34;93735.13;;;10.95;90.99
79799;BME280;69283;48.024;11.090;2023-10-19T08:39:00;93740.19;;;10.96;91.00
79799;BME280;69283;48.024;11.090;2023-10-19T08:41:31;93735.91;;;10.95;90.54
79799;BME280;69283;48.024;11.090;2023-10-19T08:43:57;93735.53;;;10.97;90.80
79799;BME280;69283;48.024;11.090;2023-10-19T08:46:22;93734.38;;;10.98;90.64
79799;BME280;69283;48.024;11.090;2023-10-19T08:48:50;93731.28;;;11.00;90.65
79799;BME280;69283;48.024;11.090;2023-10-19T08:51:16;93733.28;;;11.03;90.70
79799;BME280;69283;48.024;11.090;2023-10-19T08:53:42;93736.00;;;11.06;90.38
79799;BME280;69283;48.024;11.090;2023-10-19T08:56:09;93729.84;;;11.13;91.48
79799;BME280;69283;48.024;11.090;2023-10-19T08:58:37;93738.75;;;11.17;92.35
79799;BME280;69283;48.024;11.090;2023-10-19T09:01:02;93732.22;;;11.21;92.62
79799;BME280;69283;48.024;11.090;2023-10-19T09:03:32;93736.91;;;11.32;93.74
79799;BME280;69283;48.024;11.090;2023-10-19T09:06:03;93731.91;;;11.37;93.81
79799;BME280;69283;48.024;11.090;2023-10-19T09:08:31;93734.28;;;11.42;94.19
79799;BME280;69283;48.024;11.090;2023-10-19T09:11:09;93730.81;;;11.45;94.55
79799;BME280;69283;48.024;11.090;2023-10-19T09:16:12;93729.25;;;11.48;94.52
79799;BME280;69283;48.024;11.090;2023-10-19T09:18:37;93723.84;;;11.51;94.93
79799;BME280;69283;48.024;11.090;2023-10-19T09:21:03;93715.34;;;11.56;94.83
79799;BME280;69283;48.024;11.090;2023-10-19T09:23:33;93711.84;;;11.59;94.51
79799;BME280;69283;48.024;11.090;2023-10-19T09:26:00;93713.84;;;11.66;94.52
79799;BME280;69283;48.024;11.090;2023-10-19T09:28:29;93713.09;;;11.73;94.78
79799;BME280;69283;48.024;11.090;2023-10-19T09:30:55;93701.50;;;11.79;94.57
79799;BME280;69283;48.024;11.090;2023-10-19T09:33:22;93697.66;;;11.87;93.98
79799;BME280;69283;48.024;11.090;2023-10-19T09:35:50;93700.38;;;11.98;93.88
79799;BME280;69283;48.024;11.090;2023-10-19T09:38:18;93698.47;;;12.02;93.64
79799;BME280;69283;48.024;11.090;2023-10-19T09:40:47;93700.78;;;12.00;93.02
79799;BME280;69283;48.024;11.090;2023-10-19T09:43:16;93700.38;;;11.98;92.35
79799;BME280;69283;48.024;11.090;2023-10-19T09:45:49;93705.47;;;12.07;91.88
79799;BME280;69283;48.024;11.090;2023-10-19T09:48:19;93703.53;;;12.14;90.99
79799;BME280;69283;48.024;11.090;2023-10-19T09:50:52;93698.50;;;12.16;90.51
79799;BME280;69283;48.024;11.090;2023-10-19T09:53:22;93694.22;;;12.15;90.03
79799;BME280;69283;48.024;11.090;2023-10-19T09:55:49;93696.56;;;12.13;90.12
79799;BME280;69283;48.024;11.090;2023-10-19T09:58:16;93695.38;;;12.14;89.93
79799;BME280;69283;48.024;11.090;2023-10-19T10:00:45;93697.72;;;12.16;89.78
79799;BME280;69283;48.024;11.090;2023-10-19T10:03:45;93695.38;;;12.18;89.88
79799;BME280;69283;48.024;11.090;2023-10-19T10:06:13;93688.03;;;12.22;90.60
79799;BME280;69283;48.024;11.090;2023-10-19T10:08:40;93688.44;;;12.24;90.58
79799;BME280;69283;48.024;11.090;2023-10-19T10:11:26;93689.59;;;12.30;90.55
79799;BME280;69283;48.024;11.090;2023-10-19T10:13:52;93683.03;;;12.42;90.51
79799;BME280;69283;48.024;11.090;2023-10-19T10:16:20;93675.25;;;12.58;90.11
79799;BME280;69283;48.024;11.090;2023-10-19T10:18:48;93671.34;;;12.77;90.38
79799;BME280;69283;48.024;11.090;2023-10-19T10:21:16;93673.28;;;12.80;89.65
79799;BME280;69283;48.024;11.090;2023-10-19T10:26:15;93672.13;;;12.81;89.48
79799;BME280;69283;48.024;11.090;2023-10-19T10:28:46;93666.31;;;12.83;89.99
79799;BME280;69283;48.024;11.090;2023-10-19T10:31:18;93664.38;;;12.83;90.11
79799;BME280;69283;48.024;11.090;2023-10-19T10:33:51;93662.03;;;12.78;90.20
79799;BME280;69283;48.024;11.090;2023-10-19T10:36:18;93653.88;;;12.74;90.46
79799;BME280;69283;48.024;11.090;2023-10-19T10:38:44;93664.38;;;12.72;90.40
79799;BME280;69283;48.024;11.090;2023-10-19T10:41:10;93667.47;;;12.74;90.69
79799;BME280;69283;48.024;11.090;2023-10-19T10:43:52;93652.72;;;12.72;90.91
79799;BME280;69283;48.024;11.090;2023-10-19T10:46:27;93649.22;;;12.71;90.95
79799;BME280;69283;48.024;11.090;2023-10-19T10:48:54;93644.97;;;12.70;91.23
79799;BME280;69283;48.024;11.090;2023-10-19T10:51:25;93644.94;;;12.77;91.26
79799;BME280;69283;48.024;11.090;2023-10-19T10:53:52;93632.53;;;12.76;90.89
79799;BME280;69283;48.024;11.090;2023-10-19T10:56:19;93625.16;;;12.73;91.54
79799;BME280;69283;48.024;11.090;2023-10-19T10:58:45;93616.63;;;12.71;91.24
79799;BME280;69283;48.024;11.090;2023-10-19T11:01:11;93615.44;;;12.72;91.23
79799;BME280;69283;48.024;11.090;2023-10-19T11:03:40;93615.06;;;12.70;91.07
79799;BME280;69283;48.024;11.090;2023-10-19T11:06:09;93617.00;;;12.77;91.61
79799;BME280;69283;48.024;11.090;2023-10-19T11:08:36;93601.44;;;12.81;91.29
79799;BME280;69283;48.024;11.090;2023-10-19T11:11:07;93603.41;;;12.84;91.35
79799;BME280;69283;48.024;11.090;2023-10-19T11:13:36;93590.59;;;12.85;91.27
79799;BME280;69283;48.024;11.090;2023-10-19T11:16:04;93573.47;;;12.91;91.81
79799;BME280;69283;48.024;11.090;2023-10-19T11:18:35;93575.78;;;12.93;91.36
79799;BME280;69283;48.024;11.090;2023-10-19T11:21:02;93587.44;;;12.93;91.17
79799;BME280;69283;48.024;11.090;2023-10-19T11:23:43;93577.34;;;12.94;90.18
79799;BME280;69283;48.024;11.090;2023-10-19T11:26:13;93570.72;;;12.95;89.98
79799;BME280;69283;48.024;11.090;2023-10-19T11:28:39;93570.31;;;13.00;90.40
79799;BME280;69283;48.024;11.090;2023-10-19T11:31:17;93581.16;;;13.10;90.39
79799;BME280;69283;48.024;11.090;2023-10-19T11:33:46;93581.16;;;13.18;90.42
79799;BME280;69283;48.024;11.090;2023-10-19T11:36:14;93572.59;;;13.19;89.67
79799;BME280;69283;48.024;11.090;2023-10-19T11:38:44;93569.91;;;13.23;89.91
79799;BME280;69283;48.024;11.090;2023-10-19T11:41:11;93584.66;;;13.25;90.41
79799;BME280;69283;48.024;11.090;2023-10-19T11:43:38;93579.59;;;13.24;89.81
79799;BME280;69283;48.024;11.090;2023-10-19T11:46:03;93575.69;;;13.28;89.36
79799;BME280;69283;48.024;11.090;2023-10-19T11:48:35;93576.47;;;13.29;89.18
79799;BME280;69283;48.024;11.090;2023-10-19T11:51:01;93581.50;;;13.30;89.02
79799;BME280;69283;48.024;11.090;2023-10-19T11:53:32;93573.34;;;13.30;89.49
79799;BME280;69283;48.024;11.090;2023-10-19T11:56:12;93577.22;;;13.33;88.56
79799;BME280;69283;48.024;11.090;2023-10-19T11:58:38;93571.75;;;13.36;88.30
79799;BME280;69283;48.024;11.090;2023-10-19T12:01:07;93567.84;;;13.45;88.23
79799;BME280;69283;48.024;11.090;2023-10-19T12:03:39;93562.00;;;13.46;88.13
79799;BME280;69283;48.024;11.090;2023-10-19T12:06:10;93561.59;;;13.48;87.97
79799;BME280;69283;48.024;11.090;2023-10-19T12:08:37;93563.09;;;13.63;86.91
79799;BME280;69283;48.024;11.090;2023-10-19T12:11:03;93554.50;;;13.68;87.01
79799;BME280;69283;48.024;11.090;2023-10-19T12:13:29;93543.16;;;13.77;85.66
79799;BME280;69283;48.024;11.090;2023-10-19T12:15:56;93538.84;;;13.79;86.14
79799;BME280;69283;48.024;11.090;2023-10-19T12:18:23;93533.41;;;13.83;86.50
79799;BME280;69283;48.024;11.090;2023-10-19T12:20:48;93529.91;;;13.82;86.18
79799;BME280;69283;48.024;11.090;2023-10-19T12:23:14;93526.38;;;13.85;85.52
79799;BME280;69283;48.024;11.090;2023-10-19T12:25:40;93525.59;;;13.85;85.36
79799;BME280;69283;48.024;11.090;2023-10-19T12:28:07;93518.94;;;13.89;84.17
79799;BME280;69283;48.024;11.090;2023-10-19T12:30:33;93511.13;;;13.95;83.68
79799;BME280;69283;48.024;11.090;2023-10-19T12:33:05;93503.31;;;13.97;83.83
79799;BME280;69283;48.024;11.090;2023-10-19T12:35:36;93511.47;;;14.00;83.87
79799;BME280;69283;48.024;11.090;2023-10-19T12:38:18;93512.22;;;14.01;82.58
79799;BME280;69283;48.024;11.090;2023-10-19T12:40:49;93507.59;;;14.02;81.87
79799;BME280;69283;48.024;11.090;2023-10-19T12:43:16;93509.50;;;14.01;82.13
79799;BME280;69283;48.024;11.090;2023-10-19T12:45:47;93508.31;;;14.06;82.03
79799;BME280;69283;48.024;11.090;2023-10-19T12:48:16;93491.13;;;14.12;82.73
79799;BME280;69283;48.024;11.090;2023-10-19T12:50:42;93499.69;;;14.14;82.61
79799;BME280;69283;48.024;11.090;2023-10-19T12:53:08;93498.91;;;14.14;82.73
79799;BME280;69283;48.024;11.090;2023-10-19T12:55:34;93506.63;;;14.19;82.91
79799;BME280;69283;48.024;11.090;2023-10-19T12:58:02;93502.00;;;14.16;82.88
79799;BME280;69283;48.024;11.090;2023-10-19T13:00:39;93505.50;;;14.16;83.04
79799;BME280;69283;48.024;11.090;2023-10-19T13:03:12;93513.69;;;14.13;83.06
79799;BME280;69283;48.024;11.090;2023-10-19T13:05:44;93514.47;;;14.13;83.67
79799;BME280;69283;48.024;11.090;2023-10-19T13:08:13;93513.34;;;14.11;83.27
79799;BME280;69283;48.024;11.090;2023-10-19T13:10:43;93512.97;;;14.09;83.29
79799;BME280;69283;48.024;11.090;2023-10-19T13:13:10;93500.53;;;14.08;83.37